createdAt,value
2022-08-12T00:00:01.103Z,98633.09
2022-08-12T00:03:21.382Z,98629.38
2022-08-12T00:06:41.686Z,98630.03
2022-08-12T00:10:01.880Z,98629.66
2022-08-12T00:13:21.947Z,98634.31
2022-08-12T00:16:41.975Z,98637.03
2022-08-12T00:20:02.030Z,98628.41
2022-08-12T00:23:22.181Z,98631.19
2022-08-12T00:26:42.494Z,98637.38
2022-08-12T00:30:02.957Z,98627.47
2022-08-12T00:33:23.219Z,98623.91
2022-08-12T00:36:50.108Z,98619.06
2022-08-12T00:40:10.725Z,98614.25
2022-08-12T00:43:15.678Z,98614.38
2022-08-12T00:46:32.434Z,98616.97
2022-08-12T00:49:34.019Z,98615.47
2022-08-12T00:52:35.806Z,98615.63
2022-08-12T00:55:37.574Z,98617.59
2022-08-12T00:58:39.368Z,98614.88
2022-08-12T01:02:02.130Z,98612.25
2022-08-12T01:05:48.281Z,98613.16
2022-08-12T01:09:08.309Z,98624.56
2022-08-12T01:12:09.847Z,98617.47
2022-08-12T01:15:12.381Z,98624.19
2022-08-12T01:18:14.372Z,98612.81
2022-08-12T01:21:28.100Z,98615.25
2022-08-12T01:24:59.653Z,98617.00
2022-08-12T01:28:01.855Z,98615.34
2022-08-12T01:31:04.550Z,98622.63
2022-08-12T01:34:28.697Z,98623.69
2022-08-12T01:37:36.754Z,98621.03
2022-08-12T01:40:40.454Z,98618.63
2022-08-12T01:43:44.489Z,98615.44
2022-08-12T01:47:04.265Z,98609.16
2022-08-12T01:50:17.821Z,98609.31
2022-08-12T01:53:20.925Z,98604.97
2022-08-12T01:56:22.733Z,98601.63
2022-08-12T01:59:50.295Z,98600.03
2022-08-12T02:03:01.961Z,98604.25
2022-08-12T02:06:26.925Z,98599.91
2022-08-12T02:10:50.903Z,98598.22
2022-08-12T02:13:52.169Z,98608.00
2022-08-12T02:17:12.564Z,98602.84
2022-08-12T02:20:52.798Z,98599.38
2022-08-12T02:23:54.844Z,98597.44
2022-08-12T02:26:56.331Z,98605.53
2022-08-12T02:29:58.284Z,98593.97
2022-08-12T02:33:00.933Z,98595.09
2022-08-12T02:36:02.660Z,98593.44
2022-08-12T02:39:04.364Z,98582.88
2022-08-12T02:42:06.954Z,98591.72
2022-08-12T02:45:09.087Z,98596.09
2022-08-12T02:48:10.923Z,98583.00
2022-08-12T02:51:13.716Z,98581.47
2022-08-12T02:54:15.394Z,98574.59
2022-08-12T02:57:18.033Z,98573.69
2022-08-12T03:00:19.525Z,98570.38
2022-08-12T03:03:21.014Z,98572.22
2022-08-12T03:06:22.825Z,98573.72
2022-08-12T03:09:24.319Z,98572.13
2022-08-12T03:12:32.737Z,98576.63
2022-08-12T03:15:35.837Z,98573.91
2022-08-12T03:18:37.334Z,98578.13
2022-08-12T03:21:55.714Z,98575.44
2022-08-12T03:25:04.800Z,98571.28
2022-08-12T03:28:23.574Z,98578.25
2022-08-12T03:31:31.760Z,98580.06
2022-08-12T03:34:35.351Z,98588.91
2022-08-12T03:37:36.863Z,98591.53
2022-08-12T03:41:09.003Z,98585.44
2022-08-12T03:44:57.176Z,98594.16
2022-08-12T03:48:23.875Z,98594.16
2022-08-12T03:51:44.436Z,98592.53
2022-08-12T03:55:04.485Z,98594.28
2022-08-12T03:58:25.026Z,98598.47
2022-08-12T04:01:26.890Z,98596.63
2022-08-12T04:04:34.155Z,98599.50
2022-08-12T04:07:35.908Z,98593.31
2022-08-12T04:10:56.007Z,98597.75
2022-08-12T04:14:09.093Z,98607.53
2022-08-12T04:17:14.359Z,98596.13
2022-08-12T04:20:19.350Z,98596.13
2022-08-12T04:23:21.871Z,98607.72
2022-08-12T04:26:23.365Z,98605.09
2022-08-12T04:30:30.377Z,98607.06
2022-08-12T04:32:49.759Z,98607.06
2022-08-12T04:35:51.740Z,98603.50
2022-08-12T04:38:56.490Z,98606.00
2022-08-12T04:42:01.065Z,98611.22
2022-08-12T04:45:02.557Z,98614.81
2022-08-12T04:48:04.503Z,98613.84
2022-08-12T04:51:06.028Z,98618.19
2022-08-12T04:54:07.527Z,98611.22
2022-08-12T04:57:09.581Z,98609.56
2022-08-12T05:00:12.460Z,98616.63
2022-08-12T05:03:14.149Z,98612.19
2022-08-12T05:06:18.929Z,98615.50
2022-08-12T05:09:58.855Z,98614.47
2022-08-12T05:12:56.156Z,98612.59
2022-08-12T05:16:05.490Z,98612.56
2022-08-12T05:19:18.721Z,98611.69
2022-08-12T05:22:24.668Z,98618.47
2022-08-12T05:25:26.433Z,98619.38
2022-08-12T05:28:29.019Z,98619.28
2022-08-12T05:31:47.683Z,98626.25
2022-08-12T05:34:50.283Z,98625.00
2022-08-12T05:38:11.772Z,98624.88
2022-08-12T05:41:20.246Z,98618.38
2022-08-12T05:44:21.791Z,98620.63
2022-08-12T05:47:23.360Z,98626.50
2022-08-12T05:50:42.795Z,98618.53
2022-08-12T05:53:44.699Z,98622.00
2022-08-12T05:56:46.162Z,98619.25
2022-08-12T05:59:47.969Z,98622.50
2022-08-12T06:02:49.494Z,98627.63
2022-08-12T06:05:55.738Z,98621.19
2022-08-12T06:08:57.465Z,98619.97
2022-08-12T06:12:05.712Z,98625.06
2022-08-12T06:15:08.211Z,98622.22
2022-08-12T06:18:11.576Z,98628.00
2022-08-12T06:21:19.151Z,98629.53
2022-08-12T06:24:24.230Z,98619.63
2022-08-12T06:27:25.724Z,98629.66
2022-08-12T06:30:36.792Z,98620.28
2022-08-12T06:33:57.889Z,98620.97
2022-08-12T06:37:07.301Z,98611.00
2022-08-12T06:40:10.208Z,98606.03
2022-08-12T06:43:13.158Z,98606.31
2022-08-12T06:46:14.680Z,98597.94
2022-08-12T06:49:16.229Z,98589.13
2022-08-12T06:52:24.220Z,98588.19
2022-08-12T06:55:26.077Z,98587.69
2022-08-12T06:58:28.265Z,98582.47
2022-08-12T07:01:31.316Z,98583.50
2022-08-12T07:04:37.767Z,98577.34
2022-08-12T07:07:40.123Z,98569.75
2022-08-12T07:10:45.704Z,98568.13
2022-08-12T07:14:11.283Z,98565.00
2022-08-12T07:17:12.920Z,98549.28
2022-08-12T07:20:35.686Z,98554.59
2022-08-12T07:23:37.631Z,98546.56
2022-08-12T07:26:41.225Z,98539.50
2022-08-12T07:30:00.012Z,98544.16
2022-08-12T07:33:08.628Z,98536.53
2022-08-12T07:36:13.922Z,98538.66
2022-08-12T07:39:15.580Z,98522.56
2022-08-12T07:42:17.130Z,98521.31
2022-08-12T07:45:20.309Z,98513.50
2022-08-12T07:48:22.702Z,98517.19
2022-08-12T07:51:25.139Z,98516.94
2022-08-12T07:54:27.188Z,98521.75
2022-08-12T07:57:28.680Z,98525.56
2022-08-12T08:00:32.378Z,98506.91
2022-08-12T08:03:34.505Z,98507.91
2022-08-12T08:06:48.081Z,98498.31
2022-08-12T08:09:49.852Z,98507.78
2022-08-12T08:13:05.015Z,98491.03
2022-08-12T08:16:07.515Z,98497.75
2022-08-12T08:19:13.007Z,98488.78
2022-08-12T08:22:14.541Z,98482.00
2022-08-12T08:25:34.643Z,98481.63
2022-08-12T08:28:38.511Z,98475.91
2022-08-12T08:31:45.456Z,98485.53
2022-08-12T08:34:53.698Z,98485.97
2022-08-12T08:38:17.649Z,98498.41
2022-08-12T08:42:19.027Z,98481.34
2022-08-12T08:45:14.671Z,98487.16
2022-08-12T08:48:16.963Z,98503.94
2022-08-12T08:51:18.453Z,98478.38
2022-08-12T08:54:19.968Z,98476.13
2022-08-12T08:57:21.661Z,98463.22
2022-08-12T09:00:23.194Z,98476.63
2022-08-12T09:05:07.583Z,98478.78
2022-08-12T09:06:53.459Z,98473.06
2022-08-12T09:10:03.713Z,98446.41
2022-08-12T09:16:50.230Z,98452.41
2022-08-12T09:24:00.076Z,98448.44
2022-08-12T09:26:38.313Z,98445.91
2022-08-12T09:30:09.630Z,98440.00
2022-08-12T09:33:18.495Z,98442.47
2022-08-12T09:36:31.385Z,98432.09
2022-08-12T09:40:06.529Z,98423.06
2022-08-12T09:43:24.989Z,98422.16
2022-08-12T09:46:27.002Z,98422.28
2022-08-12T09:49:28.528Z,98414.00
2022-08-12T09:52:32.061Z,98425.75
2022-08-12T09:56:03.818Z,98419.66
2022-08-12T09:59:09.829Z,98393.00
2022-08-12T10:02:45.848Z,98393.00
2022-08-12T10:06:26.394Z,98394.56
2022-08-12T10:08:57.898Z,98381.97
2022-08-12T10:12:31.421Z,98372.91
2022-08-12T10:16:02.869Z,98357.59
2022-08-12T10:18:59.798Z,98359.84
2022-08-12T10:22:01.578Z,98356.84
2022-08-12T10:25:21.747Z,98346.19
2022-08-12T10:28:41.776Z,98345.47
2022-08-12T10:32:21.755Z,98355.69
2022-08-12T10:35:37.862Z,98333.66
2022-08-12T10:38:41.380Z,98346.38
2022-08-12T10:42:04.422Z,98334.50
2022-08-12T10:45:07.666Z,98338.75
2022-08-12T10:48:21.379Z,98345.84
2022-08-12T10:52:03.496Z,98320.66
2022-08-12T10:54:52.002Z,98327.25
2022-08-12T10:58:14.453Z,98330.97
2022-08-12T11:01:25.955Z,98328.25
2022-08-12T11:04:48.842Z,98344.56
2022-08-12T11:08:38.646Z,98326.28
2022-08-12T11:11:27.728Z,98319.06
2022-08-12T11:14:49.211Z,98327.78
2022-08-12T11:17:54.953Z,98309.25
2022-08-12T11:20:57.796Z,98312.97
2022-08-12T11:23:59.674Z,98318.63
2022-08-12T11:27:07.587Z,98313.66
2022-08-12T11:30:31.515Z,98328.00
2022-08-12T11:34:06.679Z,98332.16
2022-08-12T11:37:04.963Z,98312.66
2022-08-12T11:43:19.702Z,98313.66
2022-08-12T11:46:21.869Z,98290.53
2022-08-12T11:49:32.323Z,98277.75
2022-08-12T11:52:54.935Z,98291.63
2022-08-12T11:55:55.877Z,98292.94
2022-08-12T12:02:20.272Z,98313.25
2022-08-12T12:05:22.377Z,98291.22
2022-08-12T12:08:43.305Z,98274.09
2022-08-12T12:11:49.606Z,98280.16
2022-08-12T12:14:54.837Z,98293.47
2022-08-12T12:17:57.109Z,98266.53
2022-08-12T12:21:00.090Z,98257.28
2022-08-12T12:24:02.576Z,98254.44
2022-08-12T12:27:04.279Z,98251.31
2022-08-12T12:30:17.820Z,98254.91
2022-08-12T12:33:26.611Z,98232.19
2022-08-12T12:36:48.962Z,98255.06
2022-08-12T12:39:58.166Z,98237.44
2022-08-12T12:43:00.473Z,98234.28
2022-08-12T12:46:05.060Z,98230.94
2022-08-12T12:49:10.965Z,98210.84
2022-08-12T12:52:19.601Z,98219.66
2022-08-12T12:55:23.171Z,98211.13
2022-08-12T12:58:24.990Z,98220.47
2022-08-12T13:01:30.880Z,98223.84
2022-08-12T13:04:35.077Z,98227.13
2022-08-12T13:07:48.945Z,98226.25
2022-08-12T13:11:00.682Z,98233.16
2022-08-12T13:14:09.648Z,98220.81
2022-08-12T13:17:16.644Z,98222.13
2022-08-12T13:20:38.058Z,98224.22
2022-08-12T13:23:44.806Z,98234.69
2022-08-12T13:26:46.405Z,98222.66
2022-08-12T13:29:48.995Z,98226.94
2022-08-12T13:32:57.717Z,98226.06
2022-08-12T13:36:06.080Z,98218.66
2022-08-12T13:39:11.762Z,98229.19
2022-08-12T13:42:14.633Z,98218.63
2022-08-12T13:45:16.436Z,98220.00
2022-08-12T13:48:19.929Z,98213.13
2022-08-12T13:51:24.348Z,98202.53
2022-08-12T13:54:26.218Z,98189.06
2022-08-12T13:57:44.504Z,98182.03
2022-08-12T14:00:53.458Z,98183.28
2022-08-12T14:03:55.050Z,98199.22
2022-08-12T14:06:58.243Z,98198.06
2022-08-12T14:10:31.335Z,98180.03
2022-08-12T14:14:04.888Z,98187.63
2022-08-12T14:16:56.277Z,98181.44
2022-08-12T14:20:16.105Z,98189.63
2022-08-12T14:24:05.511Z,98183.00
2022-08-12T14:26:41.534Z,98187.88
2022-08-12T14:30:05.739Z,98187.72
2022-08-12T14:33:09.182Z,98181.19
2022-08-12T14:36:12.957Z,98184.97
2022-08-12T14:39:17.442Z,98193.03
2022-08-12T14:42:19.793Z,98181.53
2022-08-12T14:45:23.038Z,98169.84
2022-08-12T14:48:24.720Z,98163.31
2022-08-12T14:52:42.744Z,98183.78
2022-08-12T14:58:10.689Z,98165.66
2022-08-12T15:01:30.982Z,98168.19
2022-08-12T15:04:32.552Z,98175.13
2022-08-12T15:07:51.166Z,98153.41
2022-08-12T15:10:54.188Z,98160.53
2022-08-12T15:13:55.847Z,98167.06
2022-08-12T15:17:00.785Z,98177.19
2022-08-12T15:20:31.328Z,98185.16
2022-08-12T15:23:29.100Z,98176.38
2022-08-12T15:26:40.773Z,98183.09
2022-08-12T15:29:42.534Z,98183.94
2022-08-12T15:32:48.626Z,98190.59
2022-08-12T15:35:53.712Z,98181.78
2022-08-12T15:38:55.886Z,98173.53
2022-08-12T15:42:00.566Z,98169.72
2022-08-12T15:45:04.143Z,98173.78
2022-08-12T15:48:16.651Z,98179.00
2022-08-12T15:51:58.324Z,98178.00
2022-08-12T15:54:51.571Z,98180.00
2022-08-12T15:57:54.142Z,98184.81
2022-08-12T16:00:56.407Z,98189.78
2022-08-12T16:04:00.409Z,98185.56
2022-08-12T16:07:09.255Z,98174.72
2022-08-12T16:10:11.722Z,98184.91
2022-08-12T16:13:18.210Z,98191.06
2022-08-12T16:16:30.281Z,98176.34
2022-08-12T16:20:03.519Z,98189.97
2022-08-12T16:23:04.151Z,98192.25
2022-08-12T16:26:15.282Z,98192.16
2022-08-12T16:29:19.288Z,98195.19
2022-08-12T16:32:31.160Z,98195.28
2022-08-12T16:35:33.659Z,98175.13
2022-08-12T16:38:37.269Z,98184.56
2022-08-12T16:41:40.783Z,98166.31
2022-08-12T16:44:49.466Z,98167.13
2022-08-12T16:47:58.406Z,98183.81
2022-08-12T16:51:10.576Z,98185.63
2022-08-12T16:54:16.122Z,98184.81
2022-08-12T16:57:19.216Z,98182.00
2022-08-12T17:00:36.227Z,98191.72
2022-08-12T17:03:44.757Z,98186.53
2022-08-12T17:06:53.907Z,98184.22
2022-08-12T17:09:55.448Z,98199.50
2022-08-12T17:12:57.112Z,98182.09
2022-08-12T17:16:06.194Z,98178.78
2022-08-12T17:19:13.892Z,98186.69
2022-08-12T17:22:16.783Z,98191.69
2022-08-12T17:25:23.148Z,98191.56
2022-08-12T17:28:24.624Z,98190.84
2022-08-12T17:31:59.821Z,98206.38
2022-08-12T17:35:08.055Z,98208.72
2022-08-12T17:38:11.916Z,98209.44
2022-08-12T17:41:22.722Z,98201.28
2022-08-12T17:44:24.740Z,98204.59
2022-08-12T17:47:35.526Z,98207.16
2022-08-12T17:50:45.201Z,98205.94
2022-08-12T17:54:11.186Z,98210.69
2022-08-12T17:57:16.298Z,98209.34
2022-08-12T18:00:18.227Z,98208.88
2022-08-12T18:04:04.969Z,98206.91
2022-08-12T18:06:41.474Z,98226.34
2022-08-12T18:09:52.864Z,98225.69
2022-08-12T18:12:54.824Z,98255.25
2022-08-12T18:16:05.887Z,98245.34
2022-08-12T18:19:08.774Z,98253.59
2022-08-12T18:22:10.453Z,98249.81
2022-08-12T18:26:12.752Z,98251.88
2022-08-12T18:28:42.948Z,98257.91
2022-08-12T18:32:00.084Z,98260.94
2022-08-12T18:35:10.683Z,98272.78
2022-08-12T18:38:13.788Z,98272.16
2022-08-12T18:41:34.369Z,98270.53
2022-08-12T18:44:36.107Z,98282.03
2022-08-12T18:47:49.906Z,98302.88
2022-08-12T18:51:02.636Z,98290.06
2022-08-12T18:54:08.607Z,98292.03
2022-08-12T18:57:19.377Z,98295.38
2022-08-12T19:00:33.169Z,98311.50
2022-08-12T19:03:39.688Z,98313.25
2022-08-12T19:06:41.756Z,98324.94
2022-08-12T19:09:59.219Z,98319.41
2022-08-12T19:13:20.977Z,98327.66
2022-08-12T19:16:25.090Z,98326.16
2022-08-12T19:19:26.511Z,98342.72
2022-08-12T19:22:39.232Z,98349.34
2022-08-12T19:25:59.336Z,98344.09
2022-08-12T19:29:04.975Z,98353.13
2022-08-12T19:32:09.581Z,98347.84
2022-08-12T19:38:33.208Z,98361.41
2022-08-12T19:41:55.862Z,98368.13
2022-08-12T19:45:04.529Z,98364.16
2022-08-12T19:48:16.427Z,98355.56
2022-08-12T19:51:38.316Z,98367.69
2022-08-12T19:54:43.956Z,98365.47
2022-08-12T19:58:03.065Z,98357.91
2022-08-12T20:01:11.171Z,98365.66
2022-08-12T20:04:13.270Z,98365.53
2022-08-12T20:07:23.205Z,98367.25
2022-08-12T20:10:35.111Z,98376.25
2022-08-12T20:13:38.075Z,98379.47
2022-08-12T20:17:02.074Z,98389.06
2022-08-12T20:20:19.397Z,98385.59
2022-08-12T20:23:23.318Z,98377.41
2022-08-12T20:26:24.980Z,98385.28
2022-08-12T20:29:35.586Z,98380.91
2022-08-12T20:32:53.607Z,98392.69
2022-08-12T20:36:13.529Z,98385.28
2022-08-12T20:39:35.947Z,98386.63
2022-08-12T20:42:38.537Z,98386.50
2022-08-12T20:45:50.729Z,98384.53
2022-08-12T20:48:59.540Z,98389.50
2022-08-12T20:52:01.879Z,98397.22
2022-08-12T20:55:15.308Z,98400.41
2022-08-12T20:58:20.850Z,98391.09
2022-08-12T21:01:28.783Z,98395.53
2022-08-12T21:04:49.372Z,98408.41
2022-08-12T21:07:52.721Z,98405.69
2022-08-12T21:10:58.990Z,98397.50
2022-08-12T21:14:01.180Z,98409.66
2022-08-12T21:17:04.745Z,98411.38
2022-08-12T21:20:11.417Z,98411.59
2022-08-12T21:23:19.112Z,98408.41
2022-08-12T21:26:21.431Z,98402.63
2022-08-12T21:29:23.030Z,98399.75
2022-08-12T21:32:46.966Z,98406.72
2022-08-12T21:35:50.448Z,98403.53
2022-08-12T21:38:57.511Z,98411.81
2022-08-12T21:42:00.378Z,98414.13
2022-08-12T21:45:46.954Z,98417.34
2022-08-12T21:48:26.056Z,98419.19
2022-08-12T21:51:49.467Z,98417.91
2022-08-12T21:54:49.142Z,98415.94
2022-08-12T21:58:02.502Z,98418.88
2022-08-12T22:01:10.440Z,98424.06
2022-08-12T22:04:42.600Z,98422.88
2022-08-12T22:07:55.267Z,98411.56
2022-08-12T22:10:59.801Z,98403.66
2022-08-12T22:14:08.391Z,98395.44
2022-08-12T22:17:10.953Z,98398.75
2022-08-12T22:20:13.934Z,98414.94
2022-08-12T22:23:21.863Z,98415.84
2022-08-12T22:26:37.496Z,98433.22
2022-08-12T22:29:57.819Z,98421.13
2022-08-12T22:33:05.255Z,98431.31
2022-08-12T22:36:20.876Z,98429.94
2022-08-12T22:39:26.351Z,98435.22
2022-08-12T22:42:46.789Z,98435.31
2022-08-12T22:46:11.665Z,98421.44
2022-08-12T22:49:13.136Z,98422.53
2022-08-12T22:52:23.034Z,98436.84
2022-08-12T22:55:59.034Z,98428.09
2022-08-12T22:58:47.443Z,98437.75
2022-08-12T23:02:01.846Z,98428.22
2022-08-12T23:05:03.909Z,98419.13
2022-08-12T23:08:13.845Z,98421.13
2022-08-12T23:11:23.677Z,98423.25
2022-08-12T23:14:27.400Z,98416.53
2022-08-12T23:17:40.206Z,98414.16
2022-08-12T23:20:42.852Z,98417.84
2022-08-12T23:24:09.596Z,98413.50
2022-08-12T23:27:50.183Z,98407.38
2022-08-12T23:30:48.939Z,98434.53
2022-08-12T23:33:59.762Z,98416.03
2022-08-12T23:37:01.962Z,98424.19
2022-08-12T23:40:14.247Z,98424.91
2022-08-12T23:43:17.705Z,98424.91
2022-08-12T23:46:22.486Z,98428.78
2022-08-12T23:49:58.045Z,98415.88
2022-08-12T23:52:51.061Z,98431.28
2022-08-12T23:55:54.761Z,98421.75
2022-08-12T23:58:58.690Z,98427.13
